Time;durP1;ratioP1;P1;durP2;ratioP2;P2;SDS_P1;SDS_P2;PMS_P1;PMS_P2;Temp;Humidity;BMP_temperature;BMP_pressure;BME280_temperature;BME280_humidity;BME280_pressure;Samples;Min_cycle;Max_cycle;Signal;HPM_P1;HPM_P2
2024/03/15 00:00:36;;;;;;;3.20;2.90;;;;;;;16.20;52.39;97071.53;5040055;28;20245;-72
2024/03/15 00:03:01;;;;;;;4.80;3.00;;;;;;;16.12;52.33;97065.38;5030724;28;20199;-70
2024/03/15 00:05:29;;;;;;;6.37;3.37;;;;;;;16.08;52.21;97072.06;5031594;28;20720;-71
2024/03/15 00:07:55;;;;;;;7.73;3.20;;;;;;;16.11;52.36;97061.09;5031533;28;20188;-70
2024/03/15 00:10:21;;;;;;;3.40;3.10;;;;;;;16.10;51.87;97070.03;5031541;28;20962;-72
2024/03/15 00:12:46;;;;;;;5.23;3.27;;;;;;;16.15;52.08;97064.19;5047502;28;20477;-72
2024/03/15 00:15:13;;;;;;;3.40;3.03;;;;;;;16.06;52.20;97066.13;5044288;28;20179;-69
2024/03/15 00:17:38;;;;;;;5.40;2.90;;;;;;;16.11;52.11;97063.75;5030626;28;20196;-70
2024/03/15 00:20:07;;;;;;;5.10;3.50;;;;;;;16.02;52.30;97064.88;5029926;28;20421;-72
2024/03/15 00:22:34;;;;;;;3.83;3.40;;;;;;;15.99;52.37;97060.00;5038727;28;20184;-70
2024/03/15 00:24:59;;;;;;;3.30;3.00;;;;;;;15.99;52.48;97064.44;5039443;28;20971;-70
2024/03/15 00:27:25;;;;;;;3.80;3.20;;;;;;;16.00;52.51;97063.44;5031015;28;20422;-71
2024/03/15 00:29:50;;;;;;;4.37;3.00;;;;;;;15.95;52.52;97064.00;5029964;28;20180;-70
2024/03/15 00:32:16;;;;;;;3.40;3.10;;;;;;;15.94;52.39;97071.09;5041705;28;20190;-70
2024/03/15 00:34:41;;;;;;;3.93;3.30;;;;;;;15.91;52.48;97062.75;5040387;28;20605;-68
2024/03/15 00:37:08;;;;;;;3.30;3.00;;;;;;;15.92;52.68;97065.22;5043081;28;20206;-72
2024/03/15 00:39:35;;;;;;;4.60;3.83;;;;;;;15.88;52.55;97063.94;5029151;28;20295;-72
2024/03/15 00:42:01;;;;;;;5.03;3.13;;;;;;;15.85;52.74;97063.50;5040274;28;20824;-71
2024/03/15 00:44:27;;;;;;;4.37;3.53;;;;;;;15.88;52.68;97063.16;5031144;28;20536;-69
2024/03/15 00:46:53;;;;;;;3.30;3.00;;;;;;;15.80;52.86;97059.56;5032030;28;20422;-70
2024/03/15 00:49:18;;;;;;;4.73;3.33;;;;;;;15.81;52.81;97066.50;5041915;28;20267;-69
2024/03/15 00:51:44;;;;;;;9.57;3.17;;;;;;;15.84;52.88;97062.66;5036699;28;20883;-70
2024/03/15 00:54:09;;;;;;;4.70;3.20;;;;;;;15.82;52.52;97054.94;5042515;28;20270;-69
2024/03/15 00:56:36;;;;;;;4.07;3.27;;;;;;;15.84;52.86;97060.00;5048025;28;20679;-73
2024/03/15 00:59:01;;;;;;;3.93;3.23;;;;;;;15.87;52.84;97056.22;5033519;28;20562;-71
2024/03/15 01:01:27;;;;;;;2.80;2.57;;;;;;;15.90;52.60;97063.75;5030545;28;20449;-68
2024/03/15 01:03:52;;;;;;;4.40;3.53;;;;;;;15.86;52.54;97054.59;5039198;28;20238;-71
2024/03/15 01:06:18;;;;;;;3.40;3.03;;;;;;;15.85;52.68;97059.03;5027464;28;20176;-70
2024/03/15 01:08:43;;;;;;;6.53;3.10;;;;;;;15.83;52.70;97055.72;5030582;28;20684;-70
2024/03/15 01:11:08;;;;;;;3.30;3.00;;;;;;;15.84;52.69;97057.38;5030174;28;20634;-71
2024/03/15 01:13:34;;;;;;;3.50;3.10;;;;;;;15.83;52.66;97055.72;5038333;28;20245;-70
2024/03/15 01:16:00;;;;;;;4.87;2.87;;;;;;;15.80;52.93;97050.84;5030098;28;20199;-70
2024/03/15 01:18:26;;;;;;;3.70;3.30;;;;;;;15.80;53.05;97051.66;5034603;28;20699;-71
2024/03/15 01:20:51;;;;;;;3.43;2.90;;;;;;;15.82;52.82;97048.81;5029200;28;20545;-70
2024/03/15 01:23:18;;;;;;;3.23;2.93;;;;;;;15.78;53.02;97045.72;5041024;28;20270;-69
2024/03/15 01:25:44;;;;;;;4.87;3.33;;;;;;;15.82;52.84;97044.34;5039066;28;20248;-73
2024/03/15 01:28:10;;;;;;;4.90;3.53;;;;;;;15.86;52.53;97042.19;5031546;28;20422;-70
2024/03/15 01:30:35;;;;;;;5.13;3.00;;;;;;;15.79;52.84;97039.44;5042890;28;20450;-72
2024/03/15 01:33:01;;;;;;;4.93;3.07;;;;;;;15.79;53.05;97039.44;5039421;28;20188;-70
2024/03/15 01:35:32;;;;;;;3.13;2.90;;;;;;;15.77;52.97;97036.16;5049794;28;20190;-71
2024/03/15 01:38:02;;;;;;;4.87;2.87;;;;;;;15.75;52.92;97038.19;5031383;28;20688;-72
2024/03/15 01:40:29;;;;;;;4.10;3.40;;;;;;;15.74;53.07;97033.94;5026721;28;21013;-70
2024/03/15 01:42:54;;;;;;;2.83;2.53;;;;;;;15.77;53.18;97030.88;5036853;28;20471;-70
2024/03/15 01:45:20;;;;;;;5.43;3.20;;;;;;;15.76;52.98;97029.25;5036284;28;20601;-71
2024/03/15 01:47:45;;;;;;;5.37;2.80;;;;;;;15.76;52.90;97029.25;5040083;28;20552;-70
2024/03/15 01:50:12;;;;;;;4.30;3.40;;;;;;;15.69;52.98;97027.56;5038554;28;20175;-69
2024/03/15 01:52:38;;;;;;;3.60;2.60;;;;;;;15.71;52.87;97031.66;5036549;28;20645;-71
2024/03/15 01:55:04;;;;;;;3.00;2.80;;;;;;;15.72;52.83;97021.91;5031313;28;20473;-71
2024/03/15 01:57:29;;;;;;;3.97;3.20;;;;;;;15.68;52.90;97033.88;5036716;28;20183;-70
2024/03/15 01:59:56;;;;;;;9.80;3.50;;;;;;;15.68;52.89;97029.38;5040880;28;20194;-71
2024/03/15 02:02:22;;;;;;;4.03;3.63;;;;;;;15.64;52.93;97020.19;5046150;28;20657;-71
2024/03/15 02:04:54;;;;;;;5.50;3.07;;;;;;;15.69;52.53;97022.28;5032432;28;20546;-71
2024/03/15 02:07:28;;;;;;;3.90;2.87;;;;;;;15.65;52.66;97027.13;5031674;28;20432;-69
2024/03/15 02:09:54;;;;;;;3.27;2.97;;;;;;;15.60;52.80;97029.53;5040351;28;20464;-70
2024/03/15 02:12:20;;;;;;;3.90;3.00;;;;;;;15.62;53.09;97019.59;5032925;28;21047;-69
2024/03/15 02:14:48;;;;;;;3.07;2.87;;;;;;;15.58;52.92;97018.31;5038758;28;20437;-70
2024/03/15 02:17:14;;;;;;;4.80;3.30;;;;;;;15.50;53.06;97019.25;5028407;28;20230;-71
2024/03/15 02:19:39;;;;;;;4.47;3.17;;;;;;;15.49;53.02;97013.19;5034375;28;20526;-72
2024/03/15 02:22:05;;;;;;;3.13;2.90;;;;;;;15.46;52.86;97018.81;5034814;28;20533;-71
2024/03/15 02:24:30;;;;;;;5.17;3.07;;;;;;;15.44;53.27;97020.84;5040850;28;20250;-69
2024/03/15 02:26:56;;;;;;;4.20;2.97;;;;;;;15.40;53.12;97014.28;5039507;28;20222;-71
2024/03/15 02:29:22;;;;;;;3.17;2.87;;;;;;;15.38;52.99;97018.94;5040667;28;20167;-71
2024/03/15 02:31:48;;;;;;;4.23;2.87;;;;;;;15.42;52.87;97012.28;5045317;28;20198;-70
2024/03/15 02:34:16;;;;;;;4.00;3.00;;;;;;;15.34;53.08;97012.41;5029821;28;20840;-69
2024/03/15 02:36:41;;;;;;;2.90;2.60;;;;;;;15.28;52.87;97026.34;5035172;28;20539;-71
2024/03/15 02:39:07;;;;;;;5.30;2.67;;;;;;;15.32;52.74;97017.84;5034199;28;20492;-71
2024/03/15 02:41:33;;;;;;;3.07;2.80;;;;;;;15.27;52.96;97014.97;5026742;28;20211;-68
2024/03/15 02:43:59;;;;;;;7.50;2.83;;;;;;;15.24;52.63;97011.91;5018080;28;20513;-71
2024/03/15 02:46:25;;;;;;;3.00;2.27;;;;;;;15.21;52.64;97007.78;5039733;28;20750;-71
2024/03/15 02:48:51;;;;;;;4.90;3.20;;;;;;;15.19;52.51;97018.53;5036438;28;20480;-71
2024/03/15 02:51:16;;;;;;;4.13;2.90;;;;;;;15.19;52.61;97015.91;5035971;28;20198;-69
2024/03/15 02:53:43;;;;;;;8.23;2.90;;;;;;;15.23;52.49;97013.69;5028522;28;20510;-70
2024/03/15 02:56:09;;;;;;;3.53;2.60;;;;;;;15.27;52.07;97014.13;5030005;28;20270;-71
2024/03/15 02:58:36;;;;;;;5.10;2.37;;;;;;;15.24;52.06;97011.91;5030954;28;20418;-71
2024/03/15 03:01:01;;;;;;;3.70;2.60;;;;;;;15.19;52.26;97020.34;5026684;28;20549;-71
2024/03/15 03:03:27;;;;;;;4.50;2.80;;;;;;;15.24;52.15;97022.47;5037196;28;20518;-71
2024/03/15 03:05:52;;;;;;;5.20;3.00;;;;;;;15.27;52.08;97019.41;5025411;28;20212;-71
2024/03/15 03:08:18;;;;;;;3.90;2.67;;;;;;;15.26;51.73;97020.41;5034125;28;20234;-69
2024/03/15 03:10:44;;;;;;;4.23;2.33;;;;;;;15.25;51.85;97026.75;5028453;28;20211;-71
2024/03/15 03:13:09;;;;;;;3.70;2.80;;;;;;;15.27;51.84;97032.63;5029606;28;20179;-71
2024/03/15 03:15:35;;;;;;;4.73;2.53;;;;;;;15.15;51.98;97033.09;5042512;28;20334;-69
2024/03/15 03:18:01;;;;;;;2.80;2.60;;;;;;;15.10;52.08;97038.13;5035202;28;20644;-72
2024/03/15 03:20:32;;;;;;;3.23;2.50;;;;;;;15.18;52.02;97043.31;5036638;28;20203;-71
2024/03/15 03:23:04;;;;;;;3.87;2.73;;;;;;;15.18;52.07;97040.66;5036459;28;20433;-69
2024/03/15 03:25:31;;;;;;;2.97;2.63;;;;;;;15.17;52.04;97038.22;5030858;28;20468;-70
2024/03/15 03:27:56;;;;;;;8.47;3.10;;;;;;;15.04;52.55;97031.78;5031169;28;20434;-72
2024/03/15 03:30:22;;;;;;;4.80;2.83;;;;;;;15.10;52.33;97040.78;5035306;28;20441;-71
2024/03/15 03:32:47;;;;;;;2.70;2.50;;;;;;;15.14;52.45;97036.75;5036974;28;20195;-71
2024/03/15 03:35:13;;;;;;;4.23;3.00;;;;;;;15.12;52.01;97046.66;5027578;28;20191;-72
2024/03/15 03:37:38;;;;;;;3.20;2.97;;;;;;;15.15;52.29;97041.03;5038027;28;20214;-71
2024/03/15 03:40:13;;;;;;;2.53;2.30;;;;;;;15.23;52.30;97047.22;5032592;28;20277;-69
2024/03/15 03:42:43;;;;;;;3.33;2.70;;;;;;;15.25;52.14;97045.22;5029716;28;20190;-71
2024/03/15 03:45:15;;;;;;;3.73;2.70;;;;;;;15.23;52.02;97047.22;5040099;28;20514;-72
2024/03/15 03:47:43;;;;;;;4.37;3.00;;;;;;;15.21;51.77;97052.66;5025749;28;20955;-72
2024/03/15 03:50:11;;;;;;;7.40;2.80;;;;;;;15.20;51.97;97054.50;5036271;28;20422;-71
2024/03/15 03:52:39;;;;;;;3.13;2.27;;;;;;;15.17;51.91;97052.22;4998049;28;20418;-72
2024/03/15 03:55:07;;;;;;;4.23;2.70;;;;;;;15.20;51.94;97051.03;5031682;28;20525;-70
2024/03/15 03:57:34;;;;;;;3.80;2.63;;;;;;;15.11;52.07;97049.50;5031550;28;20426;-69
2024/03/15 04:00:13;;;;;;;4.87;2.53;;;;;;;15.12;51.98;97049.31;5036134;28;20989;-70
2024/03/15 04:02:43;;;;;;;6.30;2.47;;;;;;;15.18;51.95;97053.06;5030990;28;20520;-70
2024/03/15 04:05:09;;;;;;;3.67;2.57;;;;;;;15.19;51.83;97055.50;5037855;28;20883;-71
2024/03/15 04:07:34;;;;;;;2.70;2.43;;;;;;;15.15;51.81;97050.78;5029558;28;20548;-71
2024/03/15 04:10:00;;;;;;;5.23;2.83;;;;;;;15.10;52.01;97051.34;5026992;28;20192;-71
2024/03/15 04:12:27;;;;;;;2.37;2.17;;;;;;;15.12;52.38;97049.31;5041843;28;20396;-71
2024/03/15 04:14:55;;;;;;;4.00;2.77;;;;;;;15.02;52.14;97052.25;5033974;28;20176;-70
2024/03/15 04:17:23;;;;;;;5.43;2.60;;;;;;;15.02;52.32;97048.78;5026381;28;20829;-69
2024/03/15 04:19:52;;;;;;;4.70;3.00;;;;;;;14.98;52.62;97045.69;5033759;28;20873;-70
2024/03/15 04:22:18;;;;;;;2.37;2.13;;;;;;;14.92;52.81;97042.97;5033996;28;20457;-70
2024/03/15 04:24:43;;;;;;;4.50;2.80;;;;;;;14.84;52.97;97049.16;5030211;28;21229;-69
2024/03/15 04:27:09;;;;;;;3.60;2.73;;;;;;;14.77;53.22;97043.00;5030394;28;21104;-71
2024/03/15 04:29:35;;;;;;;6.47;2.80;;;;;;;14.73;53.42;97045.19;5035217;28;20658;-71
2024/03/15 04:32:08;;;;;;;5.20;2.70;;;;;;;14.63;53.47;97040.16;5030210;28;20554;-69
2024/03/15 04:34:37;;;;;;;3.73;2.70;;;;;;;14.64;53.50;97046.22;5033614;28;20908;-71
2024/03/15 04:37:04;;;;;;;2.93;2.60;;;;;;;14.59;53.73;97052.88;5040457;28;20434;-69
2024/03/15 04:39:30;;;;;;;3.60;2.87;;;;;;;14.62;53.66;97054.34;5029903;28;20423;-72
2024/03/15 04:41:56;;;;;;;6.83;2.50;;;;;;;14.60;53.28;97045.78;5030170;28;20453;-69
2024/03/15 04:44:22;;;;;;;4.40;2.60;;;;;;;14.55;53.61;97053.44;5038134;28;20449;-70
2024/03/15 04:46:48;;;;;;;6.73;3.00;;;;;;;14.49;53.65;97054.94;5031360;28;20176;-69
2024/03/15 04:49:14;;;;;;;4.20;3.00;;;;;;;14.50;53.81;97051.31;5039749;28;20477;-69
2024/03/15 04:51:39;;;;;;;2.80;2.47;;;;;;;14.42;54.04;97059.31;5037490;28;20230;-72
2024/03/15 04:54:05;;;;;;;3.53;2.90;;;;;;;14.43;53.98;97061.75;5030165;28;20435;-69
2024/03/15 04:56:30;;;;;;;3.70;2.87;;;;;;;14.41;54.24;97058.50;5048918;28;20639;-70
2024/03/15 04:58:56;;;;;;;3.87;2.80;;;;;;;14.35;54.30;97055.78;5042244;28;20274;-68
2024/03/15 05:01:22;;;;;;;4.33;2.57;;;;;;;14.23;54.80;97060.66;5046062;28;20195;-69
2024/03/15 05:03:48;;;;;;;3.03;2.30;;;;;;;14.26;54.68;97063.75;5032931;28;20418;-70
2024/03/15 05:06:13;;;;;;;5.07;2.60;;;;;;;14.21;54.75;97060.84;5030402;28;20684;-70
2024/03/15 05:08:38;;;;;;;3.10;2.20;;;;;;;14.23;54.51;97061.50;5033249;28;20272;-71
2024/03/15 05:11:04;;;;;;;3.10;2.30;;;;;;;14.25;54.61;97059.47;5030003;28;20275;-72
2024/03/15 05:13:29;;;;;;;3.60;2.90;;;;;;;14.23;54.47;97066.75;5032714;28;20218;-71
2024/03/15 05:15:55;;;;;;;4.13;2.40;;;;;;;14.24;54.47;97064.94;5040590;28;20270;-72
2024/03/15 05:18:20;;;;;;;3.10;2.80;;;;;;;14.23;54.40;97072.03;5039340;28;20211;-69
2024/03/15 05:20:49;;;;;;;3.63;2.70;;;;;;;14.21;54.48;97076.66;5034149;28;20579;-71
2024/03/15 05:23:15;;;;;;;4.80;2.83;;;;;;;14.22;54.44;97083.56;5031819;28;20194;-70
2024/03/15 05:25:40;;;;;;;3.83;3.43;;;;;;;14.18;54.41;97078.81;5029439;28;20465;-71
2024/03/15 05:28:08;;;;;;;8.63;5.00;;;;;;;14.18;54.54;97078.81;5024284;28;20200;-69
2024/03/15 05:30:34;;;;;;;12.53;6.20;;;;;;;14.18;54.49;97089.34;5039439;28;20261;-70
2024/03/15 05:32:59;;;;;;;6.57;5.13;;;;;;;14.20;54.37;97082.94;5029241;28;20427;-71
2024/03/15 05:35:25;;;;;;;4.43;3.13;;;;;;;14.22;54.25;97088.00;5031864;28;20657;-70
2024/03/15 05:37:51;;;;;;;4.20;2.70;;;;;;;14.22;53.99;97090.66;5030765;28;20206;-70
2024/03/15 05:40:17;;;;;;;5.30;3.70;;;;;;;14.21;53.99;97095.09;5028587;28;20592;-69
2024/03/15 05:42:43;;;;;;;3.80;3.23;;;;;;;14.17;53.80;97091.19;5038204;28;20431;-71
2024/03/15 05:45:08;;;;;;;5.10;4.10;;;;;;;14.12;54.38;97101.41;5030089;28;21025;-70
2024/03/15 05:47:34;;;;;;;14.27;4.17;;;;;;;14.09;53.94;97097.34;5031325;28;20186;-69
2024/03/15 05:50:02;;;;;;;5.13;4.33;;;;;;;13.89;54.79;97098.81;5039200;28;20197;-70
2024/03/15 05:52:28;;;;;;;10.00;6.13;;;;;;;13.90;54.85;97109.16;5036498;28;20521;-70
2024/03/15 05:54:53;;;;;;;13.93;8.30;;;;;;;13.81;55.17;97104.97;5034133;28;20428;-70
2024/03/15 05:57:19;;;;;;;10.20;6.30;;;;;;;13.83;55.17;97108.25;5028533;28;20180;-72
2024/03/15 05:59:45;;;;;;;9.90;5.43;;;;;;;13.91;54.98;97110.81;5033334;28;20207;-71
2024/03/15 06:02:10;;;;;;;6.50;4.73;;;;;;;13.95;54.68;97120.00;5029376;28;20219;-70
2024/03/15 06:04:36;;;;;;;5.80;4.30;;;;;;;13.95;54.67;97121.81;5015798;28;21259;-71
2024/03/15 06:07:01;;;;;;;4.90;3.50;;;;;;;13.92;54.95;97117.72;5033776;28;20816;-70
2024/03/15 06:09:29;;;;;;;6.60;4.00;;;;;;;13.94;54.72;97118.38;5029730;28;20259;-72
2024/03/15 06:11:55;;;;;;;6.57;3.67;;;;;;;13.98;54.75;97122.31;5030781;28;20206;-70
2024/03/15 06:14:20;;;;;;;3.77;3.00;;;;;;;14.00;54.55;97124.75;5030505;28;20458;-70
2024/03/15 06:16:46;;;;;;;4.23;3.13;;;;;;;14.02;54.24;97122.75;5040602;28;20203;-70
2024/03/15 06:19:12;;;;;;;5.70;3.60;;;;;;;14.01;54.49;97121.13;5029415;28;20429;-73
2024/03/15 06:21:38;;;;;;;8.10;3.50;;;;;;;14.03;54.21;97119.13;5028175;28;20203;-70
2024/03/15 06:24:06;;;;;;;3.70;3.40;;;;;;;14.02;54.43;97132.47;5043882;28;20428;-68
2024/03/15 06:26:31;;;;;;;4.10;3.70;;;;;;;13.94;54.71;97126.28;5028380;28;20204;-70
2024/03/15 06:28:57;;;;;;;8.87;4.30;;;;;;;14.02;54.45;97128.03;5028879;28;20422;-70
2024/03/15 06:31:24;;;;;;;5.30;3.77;;;;;;;14.10;54.09;97125.31;5027018;28;20210;-68
2024/03/15 06:33:50;;;;;;;32.37;16.70;;;;;;;14.13;53.54;97121.50;5034627;28;20559;-69
2024/03/15 06:36:16;;;;;;;29.97;15.67;;;;;;;14.17;53.95;97128.06;5030982;28;20507;-70
2024/03/15 06:43:59;;;;;;;4.07;3.00;;;;;;;14.44;53.67;97137.22;5020863;28;20899;-70
2024/03/15 06:46:41;;;;;;;5.23;2.30;;;;;;;14.49;52.60;97128.78;5038948;28;20483;-70
2024/03/15 06:49:16;;;;;;;3.43;2.50;;;;;;;14.65;52.64;97132.25;5030251;28;21023;-70
2024/03/15 06:54:26;;;;;;;6.10;2.73;;;;;;;14.98;52.26;97138.06;5041850;28;20422;-69
2024/03/15 06:56:52;;;;;;;9.23;2.83;;;;;;;15.16;51.60;97140.31;5032172;28;21068;-71
2024/03/15 06:59:18;;;;;;;3.70;2.60;;;;;;;15.38;51.00;97129.81;5029473;28;20450;-70
2024/03/15 07:01:46;;;;;;;3.30;2.50;;;;;;;15.51;50.01;97137.09;5043543;28;20504;-71
2024/03/15 07:04:13;;;;;;;4.00;2.70;;;;;;;15.64;49.41;97137.25;5037005;28;20208;-71
2024/03/15 07:06:38;;;;;;;6.30;2.70;;;;;;;15.72;49.48;97132.84;5042283;28;20428;-72
2024/03/15 07:09:14;;;;;;;4.43;2.97;;;;;;;15.92;49.15;97133.94;5020083;28;20427;-69
2024/03/15 07:11:40;;;;;;;2.47;2.23;;;;;;;16.15;48.72;97135.56;5035230;28;20245;-69
2024/03/15 07:14:08;;;;;;;5.17;2.10;;;;;;;16.31;48.21;97134.47;5035958;28;20681;-70
2024/03/15 07:16:35;;;;;;;3.83;2.23;;;;;;;16.52;47.90;97127.50;5041048;28;20500;-71
2024/03/15 07:19:01;;;;;;;5.00;2.60;;;;;;;16.76;47.79;97133.41;5028679;28;20426;-71
2024/03/15 07:21:27;;;;;;;6.03;2.57;;;;;;;16.96;47.81;97128.22;5032468;28;20434;-69
2024/03/15 07:23:52;;;;;;;8.33;2.50;;;;;;;17.12;47.16;97127.91;5028976;28;20204;-70
2024/03/15 07:26:18;;;;;;;8.60;2.60;;;;;;;17.26;46.58;97139.41;5027953;28;20542;-70
2024/03/15 07:28:44;;;;;;;7.03;2.50;;;;;;;17.39;46.68;97129.88;5036621;28;20249;-71
2024/03/15 07:31:10;;;;;;;10.20;2.47;;;;;;;17.48;46.11;97142.75;5029324;28;20268;-71
2024/03/15 07:33:37;;;;;;;4.23;2.33;;;;;;;17.48;44.95;97136.63;5036030;28;20423;-70
2024/03/15 07:36:05;;;;;;;4.20;2.40;;;;;;;17.47;44.64;97145.59;5028157;28;20414;-71
2024/03/15 07:38:31;;;;;;;2.90;2.60;;;;;;;17.57;44.42;97140.75;5028016;28;20438;-71
2024/03/15 07:40:57;;;;;;;4.60;2.37;;;;;;;17.48;44.44;97141.94;5017701;28;20496;-71
2024/03/15 07:43:22;;;;;;;6.90;2.30;;;;;;;17.43;44.19;97139.88;5031513;28;20191;-70
2024/03/15 07:45:48;;;;;;;4.30;2.43;;;;;;;17.54;44.02;97143.78;5030774;28;20541;-70
2024/03/15 07:48:14;;;;;;;2.23;2.00;;;;;;;17.61;43.98;97142.00;5027935;28;20184;-70
2024/03/15 07:50:41;;;;;;;4.50;2.10;;;;;;;17.71;43.93;97141.59;5031551;28;20195;-70
2024/03/15 07:53:07;;;;;;;3.03;2.23;;;;;;;17.75;43.75;97142.03;5027704;28;20434;-71
2024/03/15 07:55:34;;;;;;;2.13;1.93;;;;;;;17.84;44.00;97150.59;5032359;28;20450;-71
2024/03/15 07:57:59;;;;;;;8.00;2.43;;;;;;;17.89;43.37;97151.66;5028774;28;20422;-68
2024/03/15 08:00:25;;;;;;;9.80;2.40;;;;;;;17.94;43.67;97151.84;5028210;28;20508;-70
2024/03/15 08:02:51;;;;;;;2.33;2.13;;;;;;;18.06;43.40;97144.16;5031557;28;20282;-70
2024/03/15 08:05:17;;;;;;;2.90;2.03;;;;;;;18.03;42.89;97155.19;5042522;28;20544;-70
2024/03/15 08:07:42;;;;;;;5.80;2.00;;;;;;;18.23;42.64;97154.38;5031846;28;20184;-69
2024/03/15 08:10:10;;;;;;;4.10;2.43;;;;;;;18.40;42.51;97160.09;5032049;28;20248;-69
2024/03/15 08:12:39;;;;;;;2.00;1.80;;;;;;;18.61;41.95;97156.44;5030822;28;20190;-70
2024/03/15 08:15:07;;;;;;;2.20;2.00;;;;;;;18.69;41.46;97163.38;5033583;28;20418;-71
2024/03/15 08:17:32;;;;;;;4.83;2.50;;;;;;;18.99;41.33;97168.28;5039803;28;20448;-70
2024/03/15 08:19:58;;;;;;;2.77;2.10;;;;;;;19.12;40.91;97168.25;5037901;28;20430;-71
2024/03/15 08:22:23;;;;;;;2.40;2.00;;;;;;;19.40;40.83;97167.16;5037539;28;20207;-70
2024/03/15 08:24:49;;;;;;;2.87;2.40;;;;;;;19.70;40.20;97157.84;5042156;28;20198;-70
2024/03/15 08:27:14;;;;;;;1.77;1.67;;;;;;;19.92;39.76;97163.66;5036512;28;20641;-71
2024/03/15 08:29:39;;;;;;;3.40;2.10;;;;;;;20.14;39.63;97158.03;5039358;28;20611;-70
2024/03/15 08:32:07;;;;;;;5.50;2.00;;;;;;;20.32;39.29;97160.75;5030808;28;20207;-70
2024/03/15 08:34:34;;;;;;;4.07;2.07;;;;;;;20.58;39.06;97160.78;5029235;28;20309;-70
2024/03/15 08:36:59;;;;;;;3.30;2.10;;;;;;;20.77;37.92;97161.66;5029789;28;20427;-71
2024/03/15 08:39:25;;;;;;;6.50;2.00;;;;;;;21.08;38.49;97157.25;5035468;28;20955;-71
2024/03/15 08:41:51;;;;;;;3.43;1.70;;;;;;;21.34;38.00;97161.50;5030314;28;20703;-70
2024/03/15 08:44:16;;;;;;;4.10;2.30;;;;;;;21.52;37.37;97158.00;5035724;28;20717;-71
2024/03/15 08:46:43;;;;;;;5.60;2.37;;;;;;;21.72;37.65;97154.28;5039117;28;20422;-69
2024/03/15 08:49:11;;;;;;;3.10;2.10;;;;;;;21.98;36.83;97160.31;5038980;28;20187;-71
2024/03/15 08:51:37;;;;;;;2.97;2.10;;;;;;;22.21;36.37;97155.03;5027116;28;20499;-71
2024/03/15 08:54:04;;;;;;;2.60;1.63;;;;;;;22.30;36.02;97163.53;5041573;28;20795;-70
2024/03/15 08:56:30;;;;;;;6.67;1.90;;;;;;;22.60;35.44;97157.34;5045893;28;20421;-69
2024/03/15 08:58:58;;;;;;;1.90;1.60;;;;;;;22.80;35.53;97162.34;5038692;28;20464;-70
2024/03/15 09:01:29;;;;;;;3.93;1.93;;;;;;;22.92;35.02;97153.53;5037688;28;20446;-71
2024/03/15 09:03:54;;;;;;;6.03;2.00;;;;;;;22.85;34.99;97154.44;5033545;28;20495;-71
2024/03/15 09:06:20;;;;;;;6.00;2.10;;;;;;;23.16;34.86;97154.31;5037986;28;20969;-70
2024/03/15 09:08:54;;;;;;;3.30;2.10;;;;;;;23.25;34.85;97154.78;5038822;28;20195;-72
2024/03/15 09:11:20;;;;;;;4.33;2.00;;;;;;;23.46;34.42;97148.81;5030517;28;20321;-70
2024/03/15 09:13:45;;;;;;;2.60;1.93;;;;;;;23.45;34.52;97141.81;5045464;28;20418;-71
2024/03/15 09:16:13;;;;;;;5.70;1.70;;;;;;;23.21;34.75;97140.25;5029738;28;20436;-70
2024/03/15 09:18:39;;;;;;;2.63;1.87;;;;;;;23.55;34.21;97140.44;5029936;28;20501;-70
2024/03/15 09:21:06;;;;;;;2.73;1.57;;;;;;;23.66;33.87;97142.25;5030172;28;20430;-71
2024/03/15 09:23:32;;;;;;;1.53;1.30;;;;;;;23.50;33.56;97151.00;5039215;28;20207;-72
2024/03/15 09:25:58;;;;;;;1.80;1.60;;;;;;;23.75;34.06;97146.16;5029898;28;20831;-71
2024/03/15 09:28:26;;;;;;;3.00;1.40;;;;;;;23.93;33.97;97139.00;5029990;28;20484;-71
2024/03/15 09:30:54;;;;;;;5.37;1.60;;;;;;;24.30;33.50;97138.59;5037172;28;20496;-71
2024/03/15 09:33:27;;;;;;;3.87;1.80;;;;;;;24.43;33.04;97140.13;5038020;28;20422;-70
2024/03/15 09:35:52;;;;;;;3.40;1.50;;;;;;;24.65;32.93;97142.88;5037813;28;20563;-71
2024/03/15 09:38:18;;;;;;;2.60;1.90;;;;;;;24.84;32.52;97145.31;5033287;28;20425;-72
2024/03/15 09:40:43;;;;;;;2.70;1.60;;;;;;;24.86;31.85;97148.56;5029832;28;20333;-70
2024/03/15 09:43:13;;;;;;;3.03;1.97;;;;;;;25.08;32.36;97145.94;5029343;28;20255;-70
2024/03/15 09:45:39;;;;;;;6.13;1.80;;;;;;;25.07;31.63;97136.25;5030409;28;20200;-69
2024/03/15 09:48:10;;;;;;;8.57;1.87;;;;;;;25.38;31.56;97134.00;5033750;28;20441;-72
2024/03/15 09:50:38;;;;;;;3.33;2.20;;;;;;;25.71;31.95;97137.59;5032355;28;20464;-70
2024/03/15 09:53:04;;;;;;;3.07;1.83;;;;;;;25.99;31.70;97138.44;5028700;28;20414;-71
2024/03/15 09:55:30;;;;;;;3.53;1.60;;;;;;;26.30;30.51;97133.34;5029314;28;20429;-70
2024/03/15 09:57:56;;;;;;;2.17;1.30;;;;;;;26.55;30.15;97129.25;5029337;28;20190;-70
2024/03/15 10:00:22;;;;;;;3.43;1.60;;;;;;;26.60;29.60;97128.47;5028085;28;20180;-70
2024/03/15 10:02:52;;;;;;;2.87;1.80;;;;;;;26.52;29.58;97143.22;5030474;28;20550;-71
2024/03/15 10:05:20;;;;;;;2.03;1.40;;;;;;;26.14;29.43;97124.34;5029497;28;20463;-71
2024/03/15 10:07:46;;;;;;;3.53;1.60;;;;;;;25.52;30.16;97141.69;5028335;28;20940;-70
2024/03/15 10:10:12;;;;;;;6.57;1.50;;;;;;;25.04;30.87;97139.44;5032930;28;20411;-70
2024/03/15 10:12:40;;;;;;;2.00;1.60;;;;;;;24.46;31.73;97144.19;5028808;28;20183;-72
2024/03/15 10:15:14;;;;;;;2.00;1.47;;;;;;;24.15;32.13;97149.03;5029508;28;20610;-72
2024/03/15 10:17:40;;;;;;;2.47;1.50;;;;;;;23.76;32.82;97149.63;5030412;28;20434;-71
2024/03/15 10:20:11;;;;;;;6.67;1.40;;;;;;;23.37;33.55;97150.22;5027915;28;20452;-72
2024/03/15 10:22:38;;;;;;;3.73;1.57;;;;;;;22.97;34.50;97161.63;5031931;28;20439;-72
2024/03/15 10:25:06;;;;;;;3.93;1.43;;;;;;;22.76;35.25;97160.34;5031754;28;20453;-71
2024/03/15 10:27:31;;;;;;;1.53;1.27;;;;;;;22.60;35.69;97157.34;5038651;28;20426;-71
2024/03/15 10:29:57;;;;;;;3.77;1.20;;;;;;;22.39;36.25;97166.69;5031614;28;20427;-71
2024/03/15 10:32:22;;;;;;;8.10;1.40;;;;;;;22.21;36.72;97160.38;5038902;28;20207;-70
2024/03/15 10:34:48;;;;;;;1.87;1.10;;;;;;;22.11;37.02;97159.31;5029684;28;20821;-72
2024/03/15 10:37:13;;;;;;;1.77;1.33;;;;;;;22.07;36.96;97164.28;5035743;28;20856;-71
2024/03/15 10:39:40;;;;;;;2.23;1.40;;;;;;;22.00;37.08;97171.56;5031315;28;20769;-71
2024/03/15 10:42:05;;;;;;;1.53;1.10;;;;;;;21.88;37.52;97176.84;5027852;28;20196;-71
2024/03/15 10:44:32;;;;;;;1.13;1.03;;;;;;;21.75;38.78;97183.19;5014612;28;20981;-70
2024/03/15 10:46:58;;;;;;;5.60;1.60;;;;;;;21.63;39.68;97183.09;5027389;28;20587;-71
2024/03/15 10:49:24;;;;;;;3.67;1.20;;;;;;;21.38;40.14;97172.53;5032281;28;20440;-70
2024/03/15 10:51:50;;;;;;;2.50;1.60;;;;;;;21.26;40.57;97181.25;5038494;28;20441;-72
2024/03/15 10:54:17;;;;;;;2.23;1.80;;;;;;;21.24;41.03;97188.66;5039011;28;20179;-72
2024/03/15 10:56:43;;;;;;;3.37;1.57;;;;;;;21.08;41.27;97186.56;5036108;28;21091;-71
2024/03/15 10:59:10;;;;;;;2.40;1.33;;;;;;;20.99;41.48;97192.19;5021307;28;20417;-71
2024/03/15 11:01:35;;;;;;;3.33;1.63;;;;;;;20.96;41.57;97192.59;5034368;28;20254;-70
2024/03/15 11:04:01;;;;;;;1.37;1.27;;;;;;;20.90;41.37;97187.34;5027613;28;20426;-69
2024/03/15 11:06:47;;;;;;;2.13;1.53;;;;;;;20.82;41.71;97191.09;5036632;28;20206;-71
2024/03/15 11:09:20;;;;;;;2.10;1.60;;;;;;;20.69;41.54;97187.47;5024574;28;20515;-70
2024/03/15 11:11:55;;;;;;;1.60;1.40;;;;;;;20.71;41.59;97196.06;5024663;28;20496;-70
2024/03/15 11:14:24;;;;;;;3.07;1.57;;;;;;;20.71;41.23;97185.41;5028493;28;20422;-70
2024/03/15 11:16:56;;;;;;;5.70;3.20;;;;;;;20.72;41.26;97187.06;5027734;28;20465;-71
2024/03/15 11:19:22;;;;;;;5.90;2.20;;;;;;;20.78;41.44;97192.59;5028065;28;20772;-71
2024/03/15 11:21:47;;;;;;;3.57;1.53;;;;;;;20.82;41.21;97189.25;5028972;28;20465;-71
2024/03/15 11:24:16;;;;;;;1.40;1.30;;;;;;;20.87;41.01;97188.59;5032089;28;20671;-71
2024/03/15 11:26:41;;;;;;;3.40;1.73;;;;;;;20.96;40.92;97186.47;5037045;28;20645;-70
2024/03/15 11:29:19;;;;;;;2.93;1.57;;;;;;;20.94;40.54;97194.66;5030705;28;20480;-72
2024/03/15 11:31:44;;;;;;;1.73;1.63;;;;;;;21.04;40.33;97191.50;5028804;28;20198;-71
2024/03/15 11:34:10;;;;;;;5.17;1.93;;;;;;;21.38;39.97;97173.31;5036070;28;20418;-69
2024/03/15 11:36:36;;;;;;;1.90;1.60;;;;;;;21.81;38.78;97176.94;5029044;28;20415;-71
2024/03/15 11:39:01;;;;;;;2.40;1.60;;;;;;;22.09;38.37;97178.19;5031924;28;20290;-71